sensor_id;sensor_type;location;lat;lon;timestamp;pressure;altitude;pressure_sealevel;temperature;humidity
70407;BME280;57821;52.202;0.154;2022-11-02T00:00:50;100888.31;;;9.84;81.82
70407;BME280;57821;52.202;0.154;2022-11-02T00:03:17;100894.38;;;9.83;82.03
70407;BME280;57821;52.202;0.154;2022-11-02T00:05:43;100913.38;;;9.84;82.52
70407;BME280;57821;52.202;0.154;2022-11-02T00:08:09;100915.06;;;9.85;82.27
70407;BME280;57821;52.202;0.154;2022-11-02T00:10:36;100918.53;;;9.85;82.65
70407;BME280;57821;52.202;0.154;2022-11-02T00:13:02;100925.44;;;9.85;82.69
70407;BME280;57821;52.202;0.154;2022-11-02T00:15:32;100928.91;;;9.82;81.77
70407;BME280;57821;52.202;0.154;2022-11-02T00:18:03;100936.66;;;9.82;82.34
70407;BME280;57821;52.202;0.154;2022-11-02T00:20:30;100947.03;;;9.82;81.81
70407;BME280;57821;52.202;0.154;2022-11-02T00:22:58;100946.16;;;9.80;81.76
70407;BME280;57821;52.202;0.154;2022-11-02T00:25:27;100957.38;;;9.82;81.64
70407;BME280;57821;52.202;0.154;2022-11-02T00:27:54;100962.56;;;9.82;81.93
70407;BME280;57821;52.202;0.154;2022-11-02T00:30:21;100961.69;;;9.82;81.39
70407;BME280;57821;52.202;0.154;2022-11-02T00:32:47;100969.47;;;9.83;81.72
70407;BME280;57821;52.202;0.154;2022-11-02T00:35:14;100966.00;;;9.84;82.10
70407;BME280;57821;52.202;0.154;2022-11-02T00:37:40;100980.69;;;9.84;81.96
70407;BME280;57821;52.202;0.154;2022-11-02T00:40:07;100977.25;;;9.83;81.67
70407;BME280;57821;52.202;0.154;2022-11-02T00:42:34;100979.84;;;9.83;81.72
70407;BME280;57821;52.202;0.154;2022-11-02T00:45:00;100996.22;;;9.82;81.96
70407;BME280;57821;52.202;0.154;2022-11-02T00:47:27;100994.50;;;9.83;82.11
70407;BME280;57821;52.202;0.154;2022-11-02T00:49:54;101004.84;;;9.81;81.41
70407;BME280;57821;52.202;0.154;2022-11-02T00:52:21;101016.06;;;9.82;82.39
70407;BME280;57821;52.202;0.154;2022-11-02T00:54:50;101022.97;;;9.80;81.75
70407;BME280;57821;52.202;0.154;2022-11-02T00:57:17;101019.50;;;9.79;82.00
70407;BME280;57821;52.202;0.154;2022-11-02T00:59:44;101024.69;;;9.79;81.96
70407;BME280;57821;52.202;0.154;2022-11-02T01:02:10;101028.13;;;9.78;82.01
70407;BME280;57821;52.202;0.154;2022-11-02T01:04:37;101027.28;;;9.78;82.32
70407;BME280;57821;52.202;0.154;2022-11-02T01:07:03;101034.19;;;9.76;82.18
70407;BME280;57821;52.202;0.154;2022-11-02T01:09:30;101036.75;;;9.74;82.02
70407;BME280;57821;52.202;0.154;2022-11-02T01:11:56;101047.97;;;9.73;82.20
70407;BME280;57821;52.202;0.154;2022-11-02T01:14:23;101052.28;;;9.71;81.68
70407;BME280;57821;52.202;0.154;2022-11-02T01:16:49;101067.84;;;9.71;81.68
70407;BME280;57821;52.202;0.154;2022-11-02T01:19:17;101080.78;;;9.71;81.36
70407;BME280;57821;52.202;0.154;2022-11-02T01:21:43;101083.38;;;9.71;81.51
70407;BME280;57821;52.202;0.154;2022-11-02T01:24:10;101074.75;;;9.72;81.12
70407;BME280;57821;52.202;0.154;2022-11-02T01:26:36;101087.69;;;9.71;81.12
70407;BME280;57821;52.202;0.154;2022-11-02T01:29:03;101098.88;;;9.70;81.16
70407;BME280;57821;52.202;0.154;2022-11-02T01:31:29;101105.78;;;9.69;81.16
70407;BME280;57821;52.202;0.154;2022-11-02T01:33:56;101117.00;;;9.68;80.77
70407;BME280;57821;52.202;0.154;2022-11-02T01:36:22;101116.97;;;9.67;80.93
70407;BME280;57821;52.202;0.154;2022-11-02T01:38:50;101128.19;;;9.64;80.45
70407;BME280;57821;52.202;0.154;2022-11-02T01:41:16;101127.34;;;9.65;80.37
70407;BME280;57821;52.202;0.154;2022-11-02T01:43:45;101130.78;;;9.64;80.16
70407;BME280;57821;52.202;0.154;2022-11-02T01:48:57;101134.22;;;9.59;80.92
70407;BME280;57821;52.202;0.154;2022-11-02T01:51:31;101143.72;;;9.64;80.42
70407;BME280;57821;52.202;0.154;2022-11-02T01:54:03;101138.50;;;9.58;80.11
70407;BME280;57821;52.202;0.154;2022-11-02T01:56:32;101148.03;;;9.61;80.15
70407;BME280;57821;52.202;0.154;2022-11-02T01:59:02;101154.06;;;9.58;80.08
70407;BME280;57821;52.202;0.154;2022-11-02T02:01:30;101167.84;;;9.57;80.03
70407;BME280;57821;52.202;0.154;2022-11-02T02:03:58;101179.06;;;9.55;79.85
70407;BME280;57821;52.202;0.154;2022-11-02T02:06:25;101178.19;;;9.54;79.88
70407;BME280;57821;52.202;0.154;2022-11-02T02:08:54;101185.06;;;9.52;79.89
70407;BME280;57821;52.202;0.154;2022-11-02T02:11:28;101186.81;;;9.53;79.82
70407;BME280;57821;52.202;0.154;2022-11-02T02:14:00;101184.19;;;9.47;79.38
70407;BME280;57821;52.202;0.154;2022-11-02T02:16:41;101192.81;;;9.51;79.81
70407;BME280;57821;52.202;0.154;2022-11-02T02:19:43;101205.78;;;9.49;79.65
70407;BME280;57821;52.202;0.154;2022-11-02T02:30:22;101228.16;;;9.42;79.10
70407;BME280;57821;52.202;0.154;2022-11-02T02:33:01;101231.56;;;9.40;79.28
70407;BME280;57821;52.202;0.154;2022-11-02T02:35:42;101237.53;;;9.33;79.36
70407;BME280;57821;52.202;0.154;2022-11-02T02:38:13;101246.22;;;9.36;79.46
70407;BME280;57821;52.202;0.154;2022-11-02T02:41:29;101247.88;;;9.33;79.64
70407;BME280;57821;52.202;0.154;2022-11-02T02:44:02;101244.38;;;9.26;79.08
70407;BME280;57821;52.202;0.154;2022-11-02T02:46:36;101253.88;;;9.26;79.39
70407;BME280;57821;52.202;0.154;2022-11-02T02:49:10;101263.34;;;9.25;79.37
70407;BME280;57821;52.202;0.154;2022-11-02T02:51:39;101265.91;;;9.22;79.62
70407;BME280;57821;52.202;0.154;2022-11-02T02:54:12;101277.94;;;9.20;79.59
70407;BME280;57821;52.202;0.154;2022-11-02T02:56:43;101292.59;;;9.18;79.57
70407;BME280;57821;52.202;0.154;2022-11-02T02:59:23;101281.31;;;9.12;79.39
70407;BME280;57821;52.202;0.154;2022-11-02T03:01:52;101295.09;;;9.11;79.37
70407;BME280;57821;52.202;0.154;2022-11-02T03:04:20;101306.34;;;9.13;79.20
70407;BME280;57821;52.202;0.154;2022-11-02T03:06:50;101307.13;;;9.08;79.84
70407;BME280;57821;52.202;0.154;2022-11-02T03:09:43;101317.47;;;9.08;79.62
70407;BME280;57821;52.202;0.154;2022-11-02T03:23:17;101326.75;;;8.91;79.42
70407;BME280;57821;52.202;0.154;2022-11-02T03:26:04;101347.47;;;8.93;79.74
70407;BME280;57821;52.202;0.154;2022-11-02T03:28:41;101354.38;;;8.92;79.82
70407;BME280;57821;52.202;0.154;2022-11-02T03:36:55;101343.03;;;8.81;79.59
70407;BME280;57821;52.202;0.154;2022-11-02T03:39:33;101361.13;;;8.81;79.98
70407;BME280;57821;52.202;0.154;2022-11-02T03:42:02;101355.88;;;8.75;80.05
70407;BME280;57821;52.202;0.154;2022-11-02T03:44:33;101371.41;;;8.77;79.84
70407;BME280;57821;52.202;0.154;2022-11-02T03:47:01;101370.53;;;8.76;79.75
70407;BME280;57821;52.202;0.154;2022-11-02T03:49:30;101382.56;;;8.74;79.97
70407;BME280;57821;52.202;0.154;2022-11-02T03:52:00;101376.44;;;8.66;80.54
70407;BME280;57821;52.202;0.154;2022-11-02T03:54:57;101392.88;;;8.71;80.35
70407;BME280;57821;52.202;0.154;2022-11-02T03:57:33;101398.00;;;8.68;79.93
70407;BME280;57821;52.202;0.154;2022-11-02T04:00:09;101403.16;;;8.67;80.60
70407;BME280;57821;52.202;0.154;2022-11-02T04:02:41;101398.78;;;8.61;80.46
70407;BME280;57821;52.202;0.154;2022-11-02T04:05:10;101416.91;;;8.64;80.50
70407;BME280;57821;52.202;0.154;2022-11-02T04:07:38;101422.06;;;8.64;80.63
70407;BME280;57821;52.202;0.154;2022-11-02T04:10:06;101435.84;;;8.63;80.85
70407;BME280;57821;52.202;0.154;2022-11-02T04:12:33;101434.97;;;8.61;80.86
70407;BME280;57821;52.202;0.154;2022-11-02T04:15:00;101428.94;;;8.60;80.64
70407;BME280;57821;52.202;0.154;2022-11-02T04:17:26;101440.97;;;8.60;80.87
70407;BME280;57821;52.202;0.154;2022-11-02T04:19:55;101454.75;;;8.59;80.89
70407;BME280;57821;52.202;0.154;2022-11-02T04:22:23;101451.28;;;8.58;80.26
70407;BME280;57821;52.202;0.154;2022-11-02T04:24:54;101451.28;;;8.58;80.95
70407;BME280;57821;52.202;0.154;2022-11-02T04:27:22;101453.00;;;8.58;80.64
70407;BME280;57821;52.202;0.154;2022-11-02T04:29:50;101466.75;;;8.57;80.67
70407;BME280;57821;52.202;0.154;2022-11-02T04:32:17;101466.78;;;8.55;80.61
70407;BME280;57821;52.202;0.154;2022-11-02T04:34:44;101479.69;;;8.55;80.43
70407;BME280;57821;52.202;0.154;2022-11-02T04:37:11;101473.66;;;8.55;80.86
70407;BME280;57821;52.202;0.154;2022-11-02T04:39:37;101469.34;;;8.55;80.42
70407;BME280;57821;52.202;0.154;2022-11-02T04:42:04;101471.91;;;8.54;80.46
70407;BME280;57821;52.202;0.154;2022-11-02T04:44:36;101473.63;;;8.53;80.54
70407;BME280;57821;52.202;0.154;2022-11-02T04:47:07;101480.50;;;8.53;80.58
70407;BME280;57821;52.202;0.154;2022-11-02T04:49:34;101489.94;;;8.51;80.49
70407;BME280;57821;52.202;0.154;2022-11-02T04:52:03;101490.81;;;8.50;80.76
70407;BME280;57821;52.202;0.154;2022-11-02T04:54:32;101494.22;;;8.49;81.13
70407;BME280;57821;52.202;0.154;2022-11-02T04:57:01;101501.06;;;8.47;81.09
70407;BME280;57821;52.202;0.154;2022-11-02T04:59:29;101498.50;;;8.47;81.08
70407;BME280;57821;52.202;0.154;2022-11-02T05:01:57;101509.66;;;8.46;81.09
70407;BME280;57821;52.202;0.154;2022-11-02T05:04:23;101503.59;;;8.42;81.25
70407;BME280;57821;52.202;0.154;2022-11-02T05:06:50;101503.53;;;8.39;81.34
70407;BME280;57821;52.202;0.154;2022-11-02T05:09:18;101524.19;;;8.38;81.13
70407;BME280;57821;52.202;0.154;2022-11-02T05:11:47;101519.78;;;8.34;81.20
70407;BME280;57821;52.202;0.154;2022-11-02T05:14:15;101516.31;;;8.32;81.07
70407;BME280;57821;52.202;0.154;2022-11-02T05:16:41;101528.31;;;8.30;81.39
70407;BME280;57821;52.202;0.154;2022-11-02T05:19:09;101529.09;;;8.25;81.46
70407;BME280;57821;52.202;0.154;2022-11-02T05:21:37;101534.19;;;8.22;81.10
70407;BME280;57821;52.202;0.154;2022-11-02T05:24:04;101534.19;;;8.21;81.52
70407;BME280;57821;52.202;0.154;2022-11-02T05:26:32;101539.28;;;8.18;81.46
70407;BME280;57821;52.202;0.154;2022-11-02T05:28:59;101537.50;;;8.15;81.48
70407;BME280;57821;52.202;0.154;2022-11-02T05:31:26;101541.78;;;8.13;81.67
70407;BME280;57821;52.202;0.154;2022-11-02T05:33:52;101530.50;;;8.10;81.88
70407;BME280;57821;52.202;0.154;2022-11-02T05:36:20;101520.94;;;8.04;81.68
70407;BME280;57821;52.202;0.154;2022-11-02T05:38:53;101520.94;;;8.03;81.91
70407;BME280;57821;52.202;0.154;2022-11-02T05:41:21;101532.94;;;8.01;82.22
70407;BME280;57821;52.202;0.154;2022-11-02T05:43:50;101532.03;;;7.99;82.07
70407;BME280;57821;52.202;0.154;2022-11-02T05:46:19;101546.66;;;7.97;82.39
70407;BME280;57821;52.202;0.154;2022-11-02T05:48:45;101544.84;;;7.94;82.13
70407;BME280;57821;52.202;0.154;2022-11-02T05:51:12;101546.56;;;7.94;82.60
70407;BME280;57821;52.202;0.154;2022-11-02T05:53:38;101544.81;;;7.91;82.94
70407;BME280;57821;52.202;0.154;2022-11-02T05:56:06;101552.47;;;7.88;82.73
70407;BME280;57821;52.202;0.154;2022-11-02T05:58:34;101550.75;;;7.87;83.20
70407;BME280;57821;52.202;0.154;2022-11-02T06:01:03;101564.53;;;7.88;83.40
70407;BME280;57821;52.202;0.154;2022-11-02T06:03:30;101571.44;;;7.89;82.75
70407;BME280;57821;52.202;0.154;2022-11-02T06:05:57;101565.41;;;7.88;83.11
70407;BME280;57821;52.202;0.154;2022-11-02T06:08:25;101565.41;;;7.88;82.94
70407;BME280;57821;52.202;0.154;2022-11-02T06:10:51;101566.31;;;7.90;83.72
70407;BME280;57821;52.202;0.154;2022-11-02T06:13:18;101558.44;;;7.84;83.71
70407;BME280;57821;52.202;0.154;2022-11-02T06:15:44;101564.56;;;7.89;83.97
70407;BME280;57821;52.202;0.154;2022-11-02T06:18:11;101558.53;;;7.89;83.67
70407;BME280;57821;52.202;0.154;2022-11-02T06:20:37;101561.97;;;7.89;83.62
70407;BME280;57821;52.202;0.154;2022-11-02T06:23:04;101560.22;;;7.88;83.87
70407;BME280;57821;52.202;0.154;2022-11-02T06:25:31;101556.81;;;7.89;83.90
70407;BME280;57821;52.202;0.154;2022-11-02T06:27:57;101563.69;;;7.89;84.09
70407;BME280;57821;52.202;0.154;2022-11-02T06:30:28;101570.56;;;7.88;83.96
70407;BME280;57821;52.202;0.154;2022-11-02T06:32:54;101567.09;;;7.88;84.19
70407;BME280;57821;52.202;0.154;2022-11-02T06:35:21;101570.56;;;7.88;84.16
70407;BME280;57821;52.202;0.154;2022-11-02T06:37:48;101575.72;;;7.88;84.21
70407;BME280;57821;52.202;0.154;2022-11-02T06:40:15;101567.97;;;7.88;84.15
70407;BME280;57821;52.202;0.154;2022-11-02T06:42:41;101570.59;;;7.90;84.27
70407;BME280;57821;52.202;0.154;2022-11-02T06:45:22;101580.97;;;7.91;84.39
70407;BME280;57821;52.202;0.154;2022-11-02T06:47:49;101578.38;;;7.93;84.20
70407;BME280;57821;52.202;0.154;2022-11-02T06:50:15;101581.00;;;7.94;84.45
70407;BME280;57821;52.202;0.154;2022-11-02T06:52:43;101581.94;;;7.96;84.67
70407;BME280;57821;52.202;0.154;2022-11-02T06:55:12;101575.94;;;7.97;84.35
70407;BME280;57821;52.202;0.154;2022-11-02T06:57:39;101576.78;;;7.98;84.20
70407;BME280;57821;52.202;0.154;2022-11-02T07:00:09;101578.44;;;7.94;84.23
70407;BME280;57821;52.202;0.154;2022-11-02T07:02:40;101588.06;;;8.01;84.31
70407;BME280;57821;52.202;0.154;2022-11-02T07:05:07;101594.13;;;8.03;84.17
70407;BME280;57821;52.202;0.154;2022-11-02T07:07:34;101593.25;;;8.04;83.92
70407;BME280;57821;52.202;0.154;2022-11-02T07:10:00;101587.28;;;8.07;83.78
70407;BME280;57821;52.202;0.154;2022-11-02T07:12:27;101584.75;;;8.08;84.10
70407;BME280;57821;52.202;0.154;2022-11-02T07:14:53;101586.50;;;8.09;84.24
70407;BME280;57821;52.202;0.154;2022-11-02T07:17:20;101595.97;;;8.10;84.17
70407;BME280;57821;52.202;0.154;2022-11-02T07:19:46;101590.78;;;8.10;83.87
70407;BME280;57821;52.202;0.154;2022-11-02T07:22:12;101593.38;;;8.10;83.87
70407;BME280;57821;52.202;0.154;2022-11-02T07:24:39;101596.84;;;8.11;83.75
70407;BME280;57821;52.202;0.154;2022-11-02T07:27:05;101604.59;;;8.11;83.94
70407;BME280;57821;52.202;0.154;2022-11-02T07:29:32;101605.47;;;8.11;84.11
70407;BME280;57821;52.202;0.154;2022-11-02T07:31:58;101607.22;;;8.12;83.90
70407;BME280;57821;52.202;0.154;2022-11-02T07:34:25;101607.22;;;8.12;84.15
70407;BME280;57821;52.202;0.154;2022-11-02T07:36:51;101606.34;;;8.12;83.90
70407;BME280;57821;52.202;0.154;2022-11-02T07:39:18;101602.91;;;8.13;84.33
70407;BME280;57821;52.202;0.154;2022-11-02T07:41:44;101600.38;;;8.14;83.79
70407;BME280;57821;52.202;0.154;2022-11-02T07:44:17;101611.59;;;8.16;83.89
70407;BME280;57821;52.202;0.154;2022-11-02T07:46:52;101616.78;;;8.18;83.74
70407;BME280;57821;52.202;0.154;2022-11-02T07:49:19;101620.28;;;8.21;83.56
70407;BME280;57821;52.202;0.154;2022-11-02T07:51:47;101619.50;;;8.24;83.53
70407;BME280;57821;52.202;0.154;2022-11-02T07:54:14;101626.44;;;8.28;83.74
70407;BME280;57821;52.202;0.154;2022-11-02T07:56:40;101626.59;;;8.33;83.41
70407;BME280;57821;52.202;0.154;2022-11-02T07:59:09;101621.44;;;8.33;83.37
70407;BME280;57821;52.202;0.154;2022-11-02T08:01:35;101626.81;;;8.45;83.42
70407;BME280;57821;52.202;0.154;2022-11-02T08:04:02;101626.03;;;8.49;83.13
70407;BME280;57821;52.202;0.154;2022-11-02T08:06:28;101637.38;;;8.57;82.98
70407;BME280;57821;52.202;0.154;2022-11-02T08:08:55;101643.53;;;8.63;82.72
70407;BME280;57821;52.202;0.154;2022-11-02T08:11:21;101632.44;;;8.69;82.58
70407;BME280;57821;52.202;0.154;2022-11-02T08:13:48;101636.06;;;8.79;82.69
70407;BME280;57821;52.202;0.154;2022-11-02T08:16:14;101636.19;;;8.86;82.44
70407;BME280;57821;52.202;0.154;2022-11-02T08:18:41;101640.66;;;8.95;82.54
70407;BME280;57821;52.202;0.154;2022-11-02T08:21:07;101639.03;;;9.03;82.21
70407;BME280;57821;52.202;0.154;2022-11-02T08:23:34;101640.09;;;9.13;82.31
70407;BME280;57821;52.202;0.154;2022-11-02T08:26:00;101652.34;;;9.24;82.31
70407;BME280;57821;52.202;0.154;2022-11-02T08:28:29;101651.72;;;9.40;82.90
70407;BME280;57821;52.202;0.154;2022-11-02T08:30:57;101642.56;;;9.62;82.47
70407;BME280;57821;52.202;0.154;2022-11-02T08:33:24;101643.78;;;9.90;82.90
70407;BME280;57821;52.202;0.154;2022-11-02T08:35:50;101643.38;;;10.21;82.93
70407;BME280;57821;52.202;0.154;2022-11-02T08:38:17;101645.44;;;10.51;82.17
70407;BME280;57821;52.202;0.154;2022-11-02T08:40:43;101648.38;;;10.83;81.59
70407;BME280;57821;52.202;0.154;2022-11-02T08:43:12;101640.84;;;11.12;81.69
70407;BME280;57821;52.202;0.154;2022-11-02T08:45:41;101640.22;;;11.45;81.57
70407;BME280;57821;52.202;0.154;2022-11-02T08:48:28;101641.38;;;11.88;79.65
70407;BME280;57821;52.202;0.154;2022-11-02T08:50:54;101631.94;;;12.17;79.33
70407;BME280;57821;52.202;0.154;2022-11-02T08:53:21;101631.19;;;12.49;79.11
70407;BME280;57821;52.202;0.154;2022-11-02T08:55:48;101632.97;;;12.83;78.69
70407;BME280;57821;52.202;0.154;2022-11-02T08:58:14;101639.09;;;13.15;76.87
70407;BME280;57821;52.202;0.154;2022-11-02T09:00:41;101634.72;;;13.42;75.57
70407;BME280;57821;52.202;0.154;2022-11-02T09:03:10;101626.00;;;13.67;75.49
70407;BME280;57821;52.202;0.154;2022-11-02T09:05:42;101634.56;;;14.03;75.37
70407;BME280;57821;52.202;0.154;2022-11-02T09:08:17;101623.13;;;14.31;72.63
70407;BME280;57821;52.202;0.154;2022-11-02T09:10:49;101617.78;;;14.60;72.73
70407;BME280;57821;52.202;0.154;2022-11-02T09:13:17;101638.44;;;14.90;71.65
70407;BME280;57821;52.202;0.154;2022-11-02T09:15:44;101632.28;;;15.00;69.62
70407;BME280;57821;52.202;0.154;2022-11-02T09:18:11;101624.38;;;15.06;68.56
70407;BME280;57821;52.202;0.154;2022-11-02T09:20:37;101620.88;;;15.09;67.80
70407;BME280;57821;52.202;0.154;2022-11-02T09:23:04;101613.91;;;15.09;68.08
70407;BME280;57821;52.202;0.154;2022-11-02T09:25:31;101611.31;;;15.08;67.30
70407;BME280;57821;52.202;0.154;2022-11-02T09:27:58;101606.97;;;15.04;66.96
70407;BME280;57821;52.202;0.154;2022-11-02T09:30:26;101593.16;;;14.91;66.24
70407;BME280;57821;52.202;0.154;2022-11-02T09:32:58;101597.63;;;14.78;66.40
70407;BME280;57821;52.202;0.154;2022-11-02T09:35:27;101591.63;;;14.67;66.36
70407;BME280;57821;52.202;0.154;2022-11-02T09:37:54;101596.00;;;14.64;66.97
70407;BME280;57821;52.202;0.154;2022-11-02T09:40:23;101585.59;;;14.56;67.22
70407;BME280;57821;52.202;0.154;2022-11-02T09:45:55;101579.53;;;14.53;66.46
70407;BME280;57821;52.202;0.154;2022-11-02T09:51:02;101562.16;;;14.55;67.71
70407;BME280;57821;52.202;0.154;2022-11-02T09:53:38;101553.34;;;14.66;66.33
70407;BME280;57821;52.202;0.154;2022-11-02T09:56:08;101559.34;;;14.76;67.88
70407;BME280;57821;52.202;0.154;2022-11-02T09:58:37;101558.38;;;14.88;67.87
70407;BME280;57821;52.202;0.154;2022-11-02T10:06:27;101558.63;;;15.53;67.22
70407;BME280;57821;52.202;0.154;2022-11-02T10:14:07;101556.88;;;16.21;64.71
70407;BME280;57821;52.202;0.154;2022-11-02T10:16:40;101558.44;;;16.36;64.38
70407;BME280;57821;52.202;0.154;2022-11-02T10:19:16;101553.09;;;16.42;62.93
70407;BME280;57821;52.202;0.154;2022-11-02T10:21:47;101554.78;;;16.44;62.80
70407;BME280;57821;52.202;0.154;2022-11-02T10:24:28;101540.03;;;16.40;61.28
70407;BME280;57821;52.202;0.154;2022-11-02T10:27:00;101533.97;;;16.37;62.16
70407;BME280;57821;52.202;0.154;2022-11-02T10:32:12;101534.91;;;16.31;61.53
70407;BME280;57821;52.202;0.154;2022-11-02T10:34:39;101534.19;;;16.22;60.67
70407;BME280;57821;52.202;0.154;2022-11-02T10:37:14;101533.41;;;16.15;61.28
70407;BME280;57821;52.202;0.154;2022-11-02T10:40:25;101526.59;;;16.07;60.91
70407;BME280;57821;52.202;0.154;2022-11-02T10:43:17;101511.00;;;15.96;60.92
70407;BME280;57821;52.202;0.154;2022-11-02T10:46:11;101512.09;;;15.83;60.90
70407;BME280;57821;52.202;0.154;2022-11-02T10:51:45;101499.31;;;15.58;61.96
70407;BME280;57821;52.202;0.154;2022-11-02T10:54:13;101485.50;;;15.44;62.03
70407;BME280;57821;52.202;0.154;2022-11-02T10:56:47;101484.72;;;15.39;62.34
70407;BME280;57821;52.202;0.154;2022-11-02T10:59:19;101489.19;;;15.30;61.91
70407;BME280;57821;52.202;0.154;2022-11-02T11:01:46;101486.66;;;15.20;62.00
70407;BME280;57821;52.202;0.154;2022-11-02T11:04:30;101484.09;;;15.16;62.63
70407;BME280;57821;52.202;0.154;2022-11-02T11:07:02;101478.06;;;15.12;63.24
70407;BME280;57821;52.202;0.154;2022-11-02T11:09:47;101464.16;;;15.10;62.89
70407;BME280;57821;52.202;0.154;2022-11-02T11:12:38;101462.44;;;15.08;62.85
70407;BME280;57821;52.202;0.154;2022-11-02T11:15:06;101452.88;;;15.07;63.28
70407;BME280;57821;52.202;0.154;2022-11-02T11:17:55;101454.63;;;15.05;64.11
70407;BME280;57821;52.202;0.154;2022-11-02T11:20:42;101448.53;;;15.06;64.20
70407;BME280;57821;52.202;0.154;2022-11-02T11:25:39;101429.44;;;15.01;64.00
70407;BME280;57821;52.202;0.154;2022-11-02T11:28:21;101428.53;;;15.05;64.77
70407;BME280;57821;52.202;0.154;2022-11-02T11:31:04;101415.47;;;15.03;64.47
70407;BME280;57821;52.202;0.154;2022-11-02T11:33:33;101419.75;;;15.09;64.50
70407;BME280;57821;52.202;0.154;2022-11-02T11:36:07;101405.00;;;15.08;64.51
70407;BME280;57821;52.202;0.154;2022-11-02T11:38:35;101403.22;;;15.08;64.52
70407;BME280;57821;52.202;0.154;2022-11-02T11:41:02;101404.13;;;15.07;64.63
70407;BME280;57821;52.202;0.154;2022-11-02T11:43:33;101398.84;;;15.12;64.61
70407;BME280;57821;52.202;0.154;2022-11-02T11:46:03;101397.09;;;15.12;64.82
70407;BME280;57821;52.202;0.154;2022-11-02T11:51:02;101379.69;;;15.13;64.40
70407;BME280;57821;52.202;0.154;2022-11-02T11:53:29;101376.19;;;15.14;64.50
70407;BME280;57821;52.202;0.154;2022-11-02T11:55:58;101364.00;;;15.13;64.24
70407;BME280;57821;52.202;0.154;2022-11-02T11:58:32;101362.13;;;15.21;63.71
70407;BME280;57821;52.202;0.154;2022-11-02T12:01:09;101350.88;;;15.19;64.11
70407;BME280;57821;52.202;0.154;2022-11-02T12:03:57;101344.69;;;15.25;62.94
70407;BME280;57821;52.202;0.154;2022-11-02T12:09:37;101335.13;;;15.25;62.59
70407;BME280;57821;52.202;0.154;2022-11-02T12:21:14;101312.59;;;15.15;63.23
70407;BME280;57821;52.202;0.154;2022-11-02T12:24:13;101331.72;;;15.18;63.41
70407;BME280;57821;52.202;0.154;2022-11-02T12:27:09;101328.25;;;15.15;63.23
70407;BME280;57821;52.202;0.154;2022-11-02T12:30:04;101323.97;;;15.11;63.46
70407;BME280;57821;52.202;0.154;2022-11-02T12:32:50;101308.31;;;15.11;63.57
70407;BME280;57821;52.202;0.154;2022-11-02T12:41:01;101278.63;;;15.15;64.40
70407;BME280;57821;52.202;0.154;2022-11-02T12:43:37;101285.47;;;15.25;64.62
70407;BME280;57821;52.202;0.154;2022-11-02T12:49:14;101287.16;;;15.29;64.89
70407;BME280;57821;52.202;0.154;2022-11-02T12:54:34;101276.63;;;15.35;64.90
70407;BME280;57821;52.202;0.154;2022-11-02T12:57:11;101260.84;;;15.41;65.02
70407;BME280;57821;52.202;0.154;2022-11-02T12:59:40;101257.34;;;15.42;64.75
70407;BME280;57821;52.202;0.154;2022-11-02T13:02:18;101252.03;;;15.48;64.10
70407;BME280;57821;52.202;0.154;2022-11-02T13:05:08;101253.72;;;15.51;64.18
70407;BME280;57821;52.202;0.154;2022-11-02T13:07:41;101253.66;;;15.55;64.12
70407;BME280;57821;52.202;0.154;2022-11-02T13:10:24;101249.38;;;15.53;63.30
70407;BME280;57821;52.202;0.154;2022-11-02T13:13:00;101239.84;;;15.47;63.17
70407;BME280;57821;52.202;0.154;2022-11-02T13:15:31;101245.88;;;15.54;63.05
70407;BME280;57821;52.202;0.154;2022-11-02T13:18:04;101250.16;;;15.56;61.79
70407;BME280;57821;52.202;0.154;2022-11-02T13:20:48;101264.09;;;15.58;61.55
70407;BME280;57821;52.202;0.154;2022-11-02T13:23:51;101253.56;;;15.61;61.84
70407;BME280;57821;52.202;0.154;2022-11-02T13:28:53;101249.16;;;15.67;61.83
70407;BME280;57821;52.202;0.154;2022-11-02T13:31:28;101237.88;;;15.63;61.72
70407;BME280;57821;52.202;0.154;2022-11-02T13:33:57;101230.97;;;15.60;62.03
70407;BME280;57821;52.202;0.154;2022-11-02T13:36:25;101229.25;;;15.56;61.91
70407;BME280;57821;52.202;0.154;2022-11-02T13:38:58;101224.13;;;15.52;62.11
70407;BME280;57821;52.202;0.154;2022-11-02T13:41:40;101213.66;;;15.53;61.72
70407;BME280;57821;52.202;0.154;2022-11-02T13:47:30;101210.16;;;15.51;62.26
70407;BME280;57821;52.202;0.154;2022-11-02T13:50:03;101194.47;;;15.51;61.94
70407;BME280;57821;52.202;0.154;2022-11-02T13:52:34;101196.22;;;15.51;61.97
70407;BME280;57821;52.202;0.154;2022-11-02T13:55:03;101198.84;;;15.49;62.01
70407;BME280;57821;52.202;0.154;2022-11-02T13:57:46;101184.13;;;15.45;62.02
70407;BME280;57821;52.202;0.154;2022-11-02T14:02:50;101177.38;;;15.32;61.95
70407;BME280;57821;52.202;0.154;2022-11-02T14:05:44;101170.47;;;15.28;61.26
70407;BME280;57821;52.202;0.154;2022-11-02T14:08:39;101172.31;;;15.23;62.42
70407;BME280;57821;52.202;0.154;2022-11-02T14:37:55;101097.94;;;14.92;61.62
70407;BME280;57821;52.202;0.154;2022-11-02T14:40:51;101110.97;;;14.95;61.61
70407;BME280;57821;52.202;0.154;2022-11-02T14:43:43;101082.16;;;14.98;61.41
70407;BME280;57821;52.202;0.154;2022-11-02T14:46:22;101074.31;;;15.01;61.62
70407;BME280;57821;52.202;0.154;2022-11-02T14:48:55;101067.38;;;14.98;61.18
70407;BME280;57821;52.202;0.154;2022-11-02T14:51:25;101076.91;;;15.01;61.14
70407;BME280;57821;52.202;0.154;2022-11-02T14:53:58;101062.13;;;15.00;61.26
70407;BME280;57821;52.202;0.154;2022-11-02T14:59:38;101035.22;;;14.96;61.57
70407;BME280;57821;52.202;0.154;2022-11-02T15:02:04;101028.28;;;14.95;61.74
70407;BME280;57821;52.202;0.154;2022-11-02T15:04:33;101029.19;;;14.91;62.13
70407;BME280;57821;52.202;0.154;2022-11-02T15:07:02;101036.22;;;14.88;62.14
70407;BME280;57821;52.202;0.154;2022-11-02T15:12:36;101027.72;;;14.75;62.45
70407;BME280;57821;52.202;0.154;2022-11-02T15:20:19;101027.88;;;14.67;63.62